Time;durP1;ratioP1;P1;durP2;ratioP2;P2;SDS_P1;SDS_P2;PMS_P1;PMS_P2;Temp;Humidity;BMP_temperature;BMP_pressure;BME280_temperature;BME280_humidity;BME280_pressure;Samples;Min_cycle;Max_cycle;Signal;HPM_P1;HPM_P2
2023/10/11 00:00:24;;;;;;;11.05;4.20;;;;;;;17.74;100.00;101549.75;5250577;28;20024;-70
2023/10/11 00:02:56;;;;;;;12.27;4.93;;;;;;;17.65;100.00;101545.44;5249952;28;20393;-71
2023/10/11 00:05:35;;;;;;;14.15;4.78;;;;;;;17.55;100.00;101551.22;5246387;28;20078;-70
2023/10/11 00:08:08;;;;;;;10.93;4.78;;;;;;;17.53;100.00;101536.19;5248490;28;20534;-70
2023/10/11 00:10:44;;;;;;;9.43;4.63;;;;;;;17.44;100.00;101545.47;5241522;28;20035;-70
2023/10/11 00:13:15;;;;;;;15.77;4.45;;;;;;;17.37;100.00;101537.28;5248896;28;20117;-70
2023/10/11 00:15:49;;;;;;;13.15;4.90;;;;;;;17.30;100.00;101534.50;5250698;28;20028;-70
2023/10/11 00:18:27;;;;;;;19.80;5.53;;;;;;;17.28;100.00;101544.72;5244887;28;20115;-70
2023/10/11 00:20:59;;;;;;;12.07;5.15;;;;;;;17.25;100.00;101531.53;5249870;28;20071;-70
2023/10/11 00:23:31;;;;;;;13.27;4.78;;;;;;;17.29;100.00;101537.41;5246732;28;20071;-70
2023/10/11 00:26:01;;;;;;;11.30;4.32;;;;;;;17.26;100.00;101535.06;5249858;28;20032;-70
2023/10/11 00:28:33;;;;;;;10.55;4.43;;;;;;;17.22;100.00;101534.66;5252404;28;20021;-71
2023/10/11 00:31:06;;;;;;;11.50;4.57;;;;;;;17.25;100.00;101528.81;5253442;28;20028;-71
2023/10/11 00:33:37;;;;;;;11.68;4.47;;;;;;;17.34;100.00;101529.53;5249722;28;20161;-70
2023/10/11 00:36:08;;;;;;;11.95;4.70;;;;;;;17.30;100.00;101537.22;5253582;28;20025;-71
2023/10/11 00:38:47;;;;;;;10.93;4.90;;;;;;;17.32;100.00;101532.44;5249023;28;20438;-71
2023/10/11 00:41:18;;;;;;;12.13;5.28;;;;;;;17.32;100.00;101535.16;5253974;28;20103;-71
2023/10/11 00:43:52;;;;;;;11.90;5.68;;;;;;;17.32;100.00;101532.44;5253716;28;20137;-71
2023/10/11 00:46:36;;;;;;;12.75;4.88;;;;;;;17.39;100.00;101529.78;5252894;28;20107;-71
2023/10/11 00:51:41;;;;;;;12.20;5.57;;;;;;;17.32;100.00;101534.31;5249533;28;20033;-71
2023/10/11 00:54:15;;;;;;;10.38;4.82;;;;;;;17.28;100.00;101528.44;5251088;28;20234;-71
2023/10/11 00:56:47;;;;;;;10.50;4.53;;;;;;;17.27;100.00;101525.91;5253504;28;20432;-70
2023/10/11 00:59:21;;;;;;;19.90;5.00;;;;;;;17.28;100.00;101525.72;5246006;28;20082;-70
2023/10/11 01:01:51;;;;;;;10.68;4.82;;;;;;;17.32;100.00;101516.19;5253671;28;20547;-70
2023/10/11 01:04:25;;;;;;;10.77;4.68;;;;;;;17.28;100.00;101519.47;5253695;28;20028;-70
2023/10/11 01:06:56;;;;;;;9.85;4.60;;;;;;;17.24;100.00;101515.47;5246088;28;20029;-70
2023/10/11 01:09:29;;;;;;;14.48;5.03;;;;;;;17.17;100.00;101514.53;5252819;28;20103;-70
2023/10/11 01:11:59;;;;;;;14.82;5.32;;;;;;;17.23;100.00;101513.78;5253755;28;20096;-70
2023/10/11 01:14:36;;;;;;;12.88;5.13;;;;;;;17.19;100.00;101504.34;5249254;28;20029;-70
2023/10/11 01:17:07;;;;;;;10.63;5.05;;;;;;;17.18;100.00;101510.81;5249174;28;20043;-70
2023/10/11 01:19:38;;;;;;;13.23;5.20;;;;;;;17.20;100.00;101503.31;5249458;28;20021;-70
2023/10/11 01:22:09;;;;;;;20.25;5.30;;;;;;;17.21;100.00;101499.56;5256485;28;20025;-70
2023/10/11 01:24:41;;;;;;;16.77;5.50;;;;;;;17.20;100.00;101509.56;5250174;28;20024;-71
2023/10/11 01:27:13;;;;;;;13.95;5.60;;;;;;;17.19;100.00;101505.19;5255517;28;20028;-70
2023/10/11 01:29:44;;;;;;;11.32;4.95;;;;;;;17.17;100.00;101499.13;5249046;28;20082;-70
2023/10/11 01:32:14;;;;;;;17.58;5.72;;;;;;;17.20;100.00;101504.16;5249415;28;20036;-70
2023/10/11 01:34:46;;;;;;;19.98;5.95;;;;;;;17.23;100.00;101492.09;5256938;28;20130;-70
2023/10/11 01:37:17;;;;;;;21.25;5.50;;;;;;;17.23;100.00;101492.09;5252082;28;20388;-71
2023/10/11 01:39:49;;;;;;;13.77;4.70;;;;;;;17.21;100.00;101489.56;5252793;28;20032;-70
2023/10/11 01:42:19;;;;;;;13.02;5.03;;;;;;;17.21;100.00;101488.72;5254109;28;20407;-71
2023/10/11 01:44:50;;;;;;;12.50;4.82;;;;;;;17.18;100.00;101479.13;5250724;28;20028;-71
2023/10/11 01:47:20;;;;;;;9.57;4.47;;;;;;;17.16;100.00;101481.16;5252475;28;20028;-71
2023/10/11 01:49:53;;;;;;;13.43;5.75;;;;;;;17.17;100.00;101480.16;5250891;28;20046;-71
2023/10/11 01:52:25;;;;;;;14.60;6.18;;;;;;;17.19;100.00;101479.97;5250540;28;20031;-70
2023/10/11 01:54:56;;;;;;;16.02;5.65;;;;;;;17.21;100.00;101478.72;5255520;28;20402;-70
2023/10/11 01:57:26;;;;;;;9.77;5.00;;;;;;;17.25;100.00;101465.63;5249638;28;20031;-70
2023/10/11 01:59:58;;;;;;;15.43;5.68;;;;;;;17.23;100.00;101475.81;5252660;28;21454;-70
2023/10/11 02:02:32;;;;;;;17.10;5.35;;;;;;;17.24;100.00;101472.06;5249466;28;20029;-70
2023/10/11 02:05:05;;;;;;;14.93;5.30;;;;;;;17.18;100.00;101471.00;5252210;28;20115;-71
2023/10/11 02:07:35;;;;;;;10.95;5.43;;;;;;;17.19;100.00;101464.53;5240733;28;20500;-71
2023/10/11 02:10:15;;;;;;;15.50;5.78;;;;;;;17.18;100.00;101462.03;5251854;28;20140;-70
2023/10/11 02:12:57;;;;;;;11.85;5.45;;;;;;;17.16;100.00;101461.34;5257819;28;20114;-70
2023/10/11 02:15:28;;;;;;;12.40;5.05;;;;;;;17.18;100.00;101451.16;5250632;28;20024;-71
2023/10/11 02:17:58;;;;;;;17.25;6.05;;;;;;;17.18;100.00;101454.72;5244840;28;20043;-70
2023/10/11 02:20:29;;;;;;;13.98;5.57;;;;;;;17.20;100.00;101455.34;5248419;28;20433;-70
2023/10/11 02:23:00;;;;;;;17.80;5.40;;;;;;;17.17;100.00;101453.03;5256704;28;20388;-70
2023/10/11 02:25:34;;;;;;;16.13;5.57;;;;;;;17.19;100.00;101448.25;5251779;28;20131;-71
2023/10/11 02:28:09;;;;;;;18.60;6.53;;;;;;;17.19;100.00;101445.53;5257560;28;20032;-71
2023/10/11 02:30:41;;;;;;;13.48;5.07;;;;;;;17.17;100.00;101444.03;5251387;28;20025;-71
2023/10/11 02:33:12;;;;;;;16.88;6.18;;;;;;;17.15;100.00;101446.97;5250949;28;20020;-71
2023/10/11 02:35:55;;;;;;;15.95;5.85;;;;;;;17.13;100.00;101446.34;5250999;28;20081;-71
2023/10/11 02:38:25;;;;;;;16.48;5.32;;;;;;;17.18;100.00;101441.16;5249906;28;20024;-71
2023/10/11 02:40:56;;;;;;;15.10;5.50;;;;;;;17.21;100.00;101448.88;5252568;28;20051;-71
2023/10/11 02:43:26;;;;;;;13.23;6.05;;;;;;;17.19;100.00;101440.13;5254215;28;20035;-71
2023/10/11 02:45:59;;;;;;;14.43;6.05;;;;;;;17.19;100.00;101442.00;5249286;28;20021;-71
2023/10/11 02:48:30;;;;;;;15.02;5.63;;;;;;;17.19;100.00;101440.13;5253988;28;20021;-71
2023/10/11 02:51:13;;;;;;;11.27;5.43;;;;;;;17.20;100.00;101439.09;5253151;28;20093;-72
2023/10/11 02:53:44;;;;;;;13.75;5.78;;;;;;;17.19;100.00;101429.28;5252259;28;20020;-71
2023/10/11 02:56:15;;;;;;;13.90;5.28;;;;;;;17.14;100.00;101431.75;5250618;28;20058;-71
2023/10/11 02:58:49;;;;;;;10.55;5.38;;;;;;;17.07;100.00;101428.13;5248341;28;20105;-71
2023/10/11 03:01:20;;;;;;;15.60;5.47;;;;;;;17.06;100.00;101423.72;5250439;28;20028;-71
2023/10/11 03:03:52;;;;;;;11.85;5.72;;;;;;;17.05;100.00;101424.75;5254266;28;20032;-71
2023/10/11 03:06:24;;;;;;;14.60;6.45;;;;;;;17.02;100.00;101425.19;5245805;28;20520;-71
2023/10/11 03:08:56;;;;;;;14.15;6.05;;;;;;;17.04;100.00;101433.94;5252067;28;20020;-71
2023/10/11 03:11:29;;;;;;;13.40;5.55;;;;;;;17.00;100.00;101432.66;5252130;28;20028;-71
2023/10/11 03:14:04;;;;;;;13.15;5.45;;;;;;;16.98;100.00;101434.72;5254461;28;20107;-70
2023/10/11 03:16:34;;;;;;;12.60;5.82;;;;;;;16.93;100.00;101420.91;5250809;28;20025;-71
2023/10/11 03:19:06;;;;;;;13.25;5.57;;;;;;;16.85;100.00;101418.31;5250208;28;20028;-71
2023/10/11 03:21:37;;;;;;;14.98;6.13;;;;;;;16.87;100.00;101427.09;5249099;28;20031;-72
2023/10/11 03:24:08;;;;;;;13.63;5.57;;;;;;;16.87;100.00;101427.09;5251489;28;20028;-71
2023/10/11 03:26:39;;;;;;;14.13;5.80;;;;;;;16.86;100.00;101430.84;5253237;28;20086;-71
2023/10/11 03:29:17;;;;;;;12.20;5.70;;;;;;;16.85;100.00;101426.44;5250890;28;20027;-71
2023/10/11 03:31:48;;;;;;;13.50;5.88;;;;;;;16.83;100.00;101423.94;5245646;28;20111;-71
2023/10/11 03:34:19;;;;;;;15.80;5.80;;;;;;;16.79;100.00;101415.34;5249755;28;20028;-71
2023/10/11 03:36:50;;;;;;;18.52;6.18;;;;;;;16.75;100.00;101414.06;5247318;28;20052;-71
2023/10/11 03:39:39;;;;;;;13.18;5.53;;;;;;;16.79;100.00;101412.66;5250649;28;20134;-71
2023/10/11 03:44:45;;;;;;;16.52;5.97;;;;;;;16.81;100.00;101410.56;5248795;28;20067;-71
2023/10/11 03:47:22;;;;;;;10.80;5.72;;;;;;;16.79;100.00;101415.34;5253566;28;20062;-71
2023/10/11 03:49:53;;;;;;;14.63;6.63;;;;;;;16.81;100.00;101401.59;5245897;28;20028;-71
2023/10/11 03:52:24;;;;;;;16.23;5.78;;;;;;;16.80;100.00;101418.91;5250578;28;20676;-71
2023/10/11 03:55:03;;;;;;;11.70;6.20;;;;;;;16.81;100.00;101413.28;5256487;28;20039;-71
2023/10/11 03:57:35;;;;;;;18.30;6.22;;;;;;;16.80;100.00;101416.19;5254014;28;20025;-71
2023/10/11 04:00:24;;;;;;;10.20;5.32;;;;;;;16.76;100.00;101415.72;5253613;28;20028;-71
2023/10/11 04:02:58;;;;;;;12.60;5.75;;;;;;;16.79;100.00;101418.06;5242290;28;20044;-71
2023/10/11 04:05:33;;;;;;;14.77;6.07;;;;;;;16.78;100.00;101413.69;5249584;28;20039;-71
2023/10/11 04:08:06;;;;;;;15.93;6.35;;;;;;;16.71;100.00;101407.34;5250024;28;20508;-72
2023/10/11 04:10:46;;;;;;;11.05;6.20;;;;;;;16.78;100.00;101412.84;5247293;28;20040;-71
2023/10/11 04:13:18;;;;;;;14.00;6.07;;;;;;;16.74;100.00;101416.97;5248035;28;20036;-71
2023/10/11 04:15:50;;;;;;;12.98;5.25;;;;;;;16.78;100.00;101427.22;5245386;28;20043;-71
2023/10/11 04:18:32;;;;;;;15.35;6.05;;;;;;;16.70;100.00;101415.63;5250144;28;20378;-71
2023/10/11 04:23:36;;;;;;;21.50;7.07;;;;;;;16.70;100.00;101416.47;5246824;28;20107;-71
2023/10/11 04:26:08;;;;;;;15.35;5.75;;;;;;;16.68;100.00;101405.00;5253482;28;20487;-71
2023/10/11 04:28:41;;;;;;;20.05;6.47;;;;;;;16.75;100.00;101403.22;5248418;28;20100;-72
2023/10/11 04:31:28;;;;;;;15.77;6.25;;;;;;;16.73;100.00;101402.59;5249800;28;20055;-71
2023/10/11 04:33:59;;;;;;;17.60;6.00;;;;;;;16.71;100.00;101404.63;5251817;28;20143;-71
2023/10/11 04:36:29;;;;;;;11.68;5.85;;;;;;;16.68;100.00;101399.59;5247048;28;20036;-71
2023/10/11 04:39:14;;;;;;;10.63;6.03;;;;;;;16.66;100.00;101403.50;5252405;28;20028;-71
2023/10/11 04:41:51;;;;;;;13.02;6.40;;;;;;;16.58;100.00;101394.47;5247710;28;20067;-71
2023/10/11 04:44:23;;;;;;;14.30;5.93;;;;;;;16.65;100.00;101399.13;5245350;28;20456;-71
2023/10/11 04:46:57;;;;;;;17.85;6.28;;;;;;;16.61;100.00;101409.50;5253558;28;20026;-71
2023/10/11 04:49:30;;;;;;;12.93;5.80;;;;;;;16.60;100.00;101413.25;5245605;28;20037;-71
2023/10/11 04:52:10;;;;;;;15.30;6.13;;;;;;;16.55;100.00;101402.16;5253024;28;20039;-71
2023/10/11 04:54:53;;;;;;;16.08;6.15;;;;;;;16.54;100.00;101414.03;5248911;28;20021;-71
2023/10/11 04:57:35;;;;;;;14.50;6.15;;;;;;;16.53;100.00;101406.94;5248775;28;20032;-71
2023/10/11 05:00:08;;;;;;;14.07;5.88;;;;;;;16.51;100.00;101406.25;5248644;28;20042;-72
2023/10/11 05:02:39;;;;;;;22.25;6.63;;;;;;;16.48;100.00;101402.09;5247030;28;20277;-71
2023/10/11 05:05:12;;;;;;;17.58;5.85;;;;;;;16.40;100.00;101398.66;5247849;28;20434;-71
2023/10/11 05:07:46;;;;;;;15.88;6.28;;;;;;;16.26;100.00;101390.38;5250538;28;20027;-71
2023/10/11 05:10:30;;;;;;;15.27;6.68;;;;;;;16.28;100.00;101398.31;5250083;28;20493;-72
2023/10/11 05:13:13;;;;;;;20.80;6.55;;;;;;;16.31;100.00;101406.03;5255538;28;20028;-71
2023/10/11 05:15:43;;;;;;;13.98;6.32;;;;;;;16.28;100.00;101412.69;5253205;28;20036;-71
2023/10/11 05:18:24;;;;;;;17.10;6.40;;;;;;;16.25;100.00;101406.81;5254744;28;20050;-71
2023/10/11 05:20:59;;;;;;;15.02;6.13;;;;;;;16.21;100.00;101414.47;5256507;28;20035;-71
2023/10/11 05:23:52;;;;;;;15.00;6.47;;;;;;;16.12;100.00;101415.63;5250399;28;20055;-71
2023/10/11 05:26:37;;;;;;;14.15;6.45;;;;;;;16.11;100.00;101424.75;5249406;28;20044;-71
2023/10/11 05:29:24;;;;;;;15.65;5.82;;;;;;;16.07;100.00;101426.16;5256833;28;20056;-70
2023/10/11 05:32:23;;;;;;;12.18;5.93;;;;;;;16.07;100.00;101419.91;5249852;28;20162;-71
2023/10/11 05:35:11;;;;;;;;;;;;;;;16.03;100.00;101420.28;5256937;28;20021;-71
2023/10/11 05:51:49;;;;;;;14.15;6.32;;;;;;;15.91;100.00;101427.19;5256079;28;20100;-71
2023/10/11 05:54:21;;;;;;;12.68;6.22;;;;;;;15.93;100.00;101432.44;5255002;28;20027;-71
2023/10/11 05:56:51;;;;;;;17.67;7.07;;;;;;;15.91;100.00;101432.59;5253615;28;20032;-71
2023/10/11 05:59:23;;;;;;;16.02;7.20;;;;;;;15.89;100.00;101433.81;5252502;28;20040;-71
2023/10/11 06:01:55;;;;;;;18.30;6.43;;;;;;;15.88;100.00;101430.28;5239041;28;20111;-71
2023/10/11 06:04:26;;;;;;;15.52;6.38;;;;;;;15.96;100.00;101423.91;5241502;28;20386;-71
2023/10/11 06:06:57;;;;;;;15.25;6.57;;;;;;;16.03;100.00;101427.56;5252197;28;20031;-71
2023/10/11 06:09:30;;;;;;;13.10;6.65;;;;;;;16.09;100.00;101426.81;5254007;28;20094;-71
2023/10/11 06:12:01;;;;;;;22.35;6.50;;;;;;;16.16;100.00;101426.88;5252911;28;20489;-71
2023/10/11 06:14:32;;;;;;;16.40;6.45;;;;;;;16.28;100.00;101426.22;5249704;28;20040;-71
2023/10/11 06:17:05;;;;;;;20.65;7.75;;;;;;;16.34;100.00;101423.78;5250091;28;20089;-71
2023/10/11 06:19:36;;;;;;;20.60;6.60;;;;;;;16.38;100.00;101427.78;5247409;28;20035;-71
2023/10/11 06:22:09;;;;;;;13.02;5.53;;;;;;;16.40;100.00;101434.69;5247346;28;20435;-71
2023/10/11 06:24:40;;;;;;;16.80;6.75;;;;;;;16.47;100.00;101432.91;5244675;28;20082;-71
2023/10/11 06:29:45;;;;;;;17.15;6.28;;;;;;;16.53;100.00;101423.19;5248242;28;20034;-71
2023/10/11 06:32:18;;;;;;;19.13;6.60;;;;;;;16.64;100.00;101422.66;5252693;28;20051;-71
2023/10/11 06:34:50;;;;;;;12.52;6.28;;;;;;;16.69;100.00;101431.06;5249044;28;20081;-71
2023/10/11 06:37:27;;;;;;;16.45;6.82;;;;;;;16.76;100.00;101431.16;5247853;28;20251;-71
2023/10/11 06:42:31;;;;;;;15.25;6.15;;;;;;;16.89;100.00;101431.28;5247394;28;20031;-71
2023/10/11 06:45:05;;;;;;;18.00;6.53;;;;;;;16.98;100.00;101434.72;5249503;28;20027;-72
2023/10/11 06:47:35;;;;;;;17.85;7.00;;;;;;;17.07;100.00;101428.97;5251456;28;20020;-72
2023/10/11 06:50:10;;;;;;;17.42;6.47;;;;;;;17.17;100.00;101436.78;5245107;28;20106;-71
2023/10/11 06:52:44;;;;;;;16.73;6.63;;;;;;;17.29;100.00;101440.63;5247403;28;20020;-71
2023/10/11 06:55:17;;;;;;;10.77;5.80;;;;;;;17.55;100.00;101441.88;5256209;28;20057;-72
2023/10/11 06:57:50;;;;;;;15.43;5.97;;;;;;;17.68;100.00;101441.97;5249042;28;20032;-72
2023/10/11 07:00:24;;;;;;;14.02;6.45;;;;;;;17.80;100.00;101443.09;5251700;28;20016;-72
2023/10/11 07:03:06;;;;;;;16.25;6.63;;;;;;;18.02;100.00;101437.59;5248474;28;20032;-71
2023/10/11 07:05:41;;;;;;;13.02;6.13;;;;;;;18.28;100.00;101445.03;5243551;28;20410;-72
2023/10/11 07:08:17;;;;;;;13.45;6.25;;;;;;;18.30;100.00;101438.34;5241291;28;20671;-72
2023/10/11 07:14:00;;;;;;;19.23;6.60;;;;;;;18.63;100.00;101438.47;5248215;28;20016;-72
2023/10/11 07:16:33;;;;;;;19.15;6.55;;;;;;;18.88;100.00;101455.06;5243304;28;20062;-73
2023/10/11 07:19:05;;;;;;;10.88;5.45;;;;;;;19.06;100.00;101450.91;5251993;28;20489;-71
2023/10/11 07:24:30;;;;;;;20.90;5.65;;;;;;;19.33;100.00;101466.22;5242435;28;20060;-72
2023/10/11 07:27:08;;;;;;;13.32;5.82;;;;;;;19.57;100.00;101470.16;5250020;28;20064;-71
2023/10/11 07:29:47;;;;;;;16.77;6.70;;;;;;;19.65;100.00;101470.00;5247904;28;20033;-72
2023/10/11 07:32:18;;;;;;;24.30;7.03;;;;;;;19.88;100.00;101477.72;5246250;28;20059;-71
2023/10/11 07:34:49;;;;;;;18.27;6.55;;;;;;;20.00;100.00;101474.34;5249481;28;20082;-72
2023/10/11 07:37:26;;;;;;;24.05;6.35;;;;;;;20.27;100.00;101483.25;5248961;28;20447;-72
2023/10/11 07:40:09;;;;;;;25.08;6.88;;;;;;;20.26;100.00;101485.13;5243893;28;20028;-72
2023/10/11 07:42:39;;;;;;;17.38;6.43;;;;;;;20.15;100.00;101488.53;5244956;28;20045;-72
2023/10/11 07:45:16;;;;;;;12.48;6.70;;;;;;;20.11;100.00;101476.38;5250183;28;20481;-72
2023/10/11 07:47:47;;;;;;;19.48;6.88;;;;;;;20.12;100.00;101478.88;5249899;28;20107;-72
2023/10/11 07:50:22;;;;;;;15.95;6.80;;;;;;;20.01;100.00;101482.28;5247281;28;20036;-71
2023/10/11 07:52:52;;;;;;;15.88;6.60;;;;;;;20.11;100.00;101484.56;5243308;28;20043;-71
2023/10/11 07:55:26;;;;;;;21.17;6.90;;;;;;;20.27;100.00;101491.41;5244549;28;20028;-72
2023/10/11 07:58:00;;;;;;;16.35;7.07;;;;;;;20.17;100.00;101489.16;5243986;28;20029;-72
2023/10/11 08:00:31;;;;;;;16.27;6.85;;;;;;;20.37;100.00;101486.34;5247064;28;20025;-73
2023/10/11 08:03:08;;;;;;;15.30;6.70;;;;;;;20.54;100.00;101476.69;5243260;28;20032;-71
2023/10/11 08:05:46;;;;;;;20.92;6.72;;;;;;;20.66;100.00;101476.81;5246405;28;20486;-73
2023/10/11 08:08:20;;;;;;;17.20;7.10;;;;;;;20.65;100.00;101483.34;5243998;28;20036;-72
2023/10/11 08:10:52;;;;;;;25.00;7.25;;;;;;;20.89;100.00;101482.59;5245024;28;20043;-71
2023/10/11 08:13:23;;;;;;;19.98;7.10;;;;;;;20.95;100.00;101478.13;5239977;28;20477;-72
2023/10/11 08:15:58;;;;;;;19.00;7.28;;;;;;;21.13;100.00;101480.94;5247743;28;20021;-71
2023/10/11 08:18:28;;;;;;;17.07;6.43;;;;;;;21.46;100.00;101482.63;5248085;28;20042;-71
2023/10/11 08:21:00;;;;;;;16.10;7.05;;;;;;;21.48;100.00;101483.22;5245399;28;20262;-72
2023/10/11 08:23:31;;;;;;;17.80;6.68;;;;;;;21.69;100.00;101493.75;5244926;28;20021;-72
2023/10/11 08:26:07;;;;;;;15.52;7.07;;;;;;;22.14;100.00;101498.16;5243429;28;20043;-72
2023/10/11 08:28:46;;;;;;;24.15;7.65;;;;;;;22.08;100.00;101504.50;5241669;28;20509;-72
2023/10/11 08:31:35;;;;;;;19.35;7.22;;;;;;;22.57;100.00;101509.00;5244003;28;20040;-72
2023/10/11 08:34:05;;;;;;;18.08;7.70;;;;;;;22.46;100.00;101507.03;5242966;28;20060;-72
2023/10/11 08:36:36;;;;;;;22.15;7.95;;;;;;;22.22;100.00;101508.78;5245557;28;20060;-72
2023/10/11 08:39:08;;;;;;;18.80;8.10;;;;;;;21.71;100.00;101509.91;5239359;28;20232;-72
2023/10/11 08:41:43;;;;;;;17.95;8.45;;;;;;;21.23;100.00;101513.19;5241524;28;20081;-72
2023/10/11 08:44:20;;;;;;;25.55;8.88;;;;;;;20.97;100.00;101511.47;5245293;28;20032;-72
2023/10/11 08:46:52;;;;;;;25.65;8.65;;;;;;;21.10;100.00;101521.47;5248072;28;20036;-72
2023/10/11 08:49:22;;;;;;;19.50;7.78;;;;;;;21.43;100.00;101519.38;5244145;28;20021;-72
2023/10/11 08:52:01;;;;;;;20.33;8.75;;;;;;;21.78;100.00;101527.06;5242468;28;20028;-72
2023/10/11 08:54:32;;;;;;;17.70;8.38;;;;;;;22.21;100.00;101526.25;5250883;28;20032;-72
2023/10/11 08:57:03;;;;;;;19.13;8.38;;;;;;;22.49;100.00;101526.56;5246184;28;20036;-72
2023/10/11 08:59:47;;;;;;;21.20;8.60;;;;;;;22.25;100.00;101521.19;5251765;28;20033;-72
2023/10/11 09:02:18;;;;;;;20.05;9.10;;;;;;;22.56;100.00;101517.44;5244802;28;20031;-72
2023/10/11 09:04:59;;;;;;;25.27;9.02;;;;;;;22.74;100.00;101525.59;5243600;28;20036;-72
2023/10/11 09:07:44;;;;;;;22.48;8.70;;;;;;;23.04;100.00;101535.75;5244934;28;20021;-71
2023/10/11 09:10:23;;;;;;;26.73;9.35;;;;;;;23.22;100.00;101528.31;5247314;28;20070;-71
2023/10/11 09:12:56;;;;;;;25.45;9.40;;;;;;;22.90;100.00;101525.00;5248660;28;20086;-71
2023/10/11 09:15:45;;;;;;;19.30;9.10;;;;;;;23.13;100.00;101535.19;5246528;28;20028;-72
2023/10/11 09:18:17;;;;;;;18.05;9.05;;;;;;;23.31;100.00;101538.94;5243584;28;20040;-72
2023/10/11 09:20:56;;;;;;;26.90;9.85;;;;;;;23.05;100.00;101529.25;5248249;28;20040;-72
2023/10/11 09:23:36;;;;;;;26.52;9.55;;;;;;;22.76;100.00;101523.47;5243717;28;20531;-72
2023/10/11 09:26:08;;;;;;;20.35;10.07;;;;;;;22.56;100.00;101529.22;5246896;28;20024;-72
2023/10/11 09:28:44;;;;;;;19.52;10.07;;;;;;;22.89;100.00;101527.97;5245828;28;20546;-72
2023/10/11 09:31:16;;;;;;;22.10;9.98;;;;;;;22.57;100.00;101530.03;5246840;28;20074;-72
2023/10/11 09:33:51;;;;;;;23.48;10.32;;;;;;;22.69;100.00;101525.44;5252058;28;20058;-72
2023/10/11 09:36:24;;;;;;;21.30;10.85;;;;;;;22.67;100.00;101522.13;5249803;28;20046;-71
2023/10/11 09:38:56;;;;;;;21.10;10.35;;;;;;;22.48;100.00;101527.59;5249800;28;20035;-72
2023/10/11 09:41:38;;;;;;;24.95;10.55;;;;;;;22.65;100.00;101524.28;5242507;28;20032;-72
2023/10/11 09:44:10;;;;;;;22.92;11.35;;;;;;;22.51;100.00;101526.31;5245629;28;20111;-71
2023/10/11 09:46:43;;;;;;;24.63;11.95;;;;;;;22.53;100.00;101537.03;5243776;28;20072;-72
2023/10/11 09:49:15;;;;;;;31.45;11.07;;;;;;;22.68;100.00;101535.56;5243644;28;20024;-72
2023/10/11 09:51:46;;;;;;;22.73;11.07;;;;;;;22.87;100.00;101541.00;5242141;28;20055;-73
2023/10/11 09:54:17;;;;;;;29.30;12.55;;;;;;;22.81;100.00;101544.69;5241222;28;20466;-72
2023/10/11 09:57:06;;;;;;;25.83;11.88;;;;;;;23.00;100.00;101541.72;5248160;28;20023;-72
2023/10/11 09:59:47;;;;;;;23.52;10.75;;;;;;;23.11;100.00;101542.81;5249367;28;20028;-71
2023/10/11 10:02:21;;;;;;;22.65;12.20;;;;;;;22.79;100.00;101544.06;5245741;28;20109;-72
2023/10/11 10:04:51;;;;;;;30.63;13.10;;;;;;;22.50;100.00;101541.06;5245316;28;20111;-73
2023/10/11 10:07:28;;;;;;;26.17;11.68;;;;;;;22.39;100.00;101537.19;5251430;28;20237;-72
2023/10/11 10:10:01;;;;;;;33.78;13.93;;;;;;;22.10;100.00;101544.22;5242238;28;20515;-72
2023/10/11 10:12:40;;;;;;;21.83;11.93;;;;;;;22.17;100.00;101545.00;5244639;28;20153;-71
2023/10/11 10:15:15;;;;;;;27.45;13.00;;;;;;;22.34;100.00;101547.13;5246204;28;20024;-72
2023/10/11 10:17:56;;;;;;;32.28;12.75;;;;;;;22.64;100.00;101541.72;5241655;28;20108;-73
2023/10/11 10:20:41;;;;;;;25.95;12.30;;;;;;;22.90;100.00;101543.34;5246842;28;20035;-72
2023/10/11 10:23:14;;;;;;;33.92;14.38;;;;;;;22.90;100.00;101544.16;5243535;28;20024;-72
2023/10/11 10:25:46;;;;;;;26.50;13.18;;;;;;;22.99;100.00;101540.03;5247197;28;20032;-71
2023/10/11 10:28:35;;;;;;;34.15;13.18;;;;;;;22.96;100.00;101540.50;5244723;28;20028;-72
2023/10/11 10:31:11;;;;;;;31.05;13.25;;;;;;;22.79;100.00;101544.06;5238214;28;20158;-72
2023/10/11 10:33:43;;;;;;;28.05;13.25;;;;;;;22.97;100.00;101555.00;5242096;28;20073;-72
2023/10/11 10:36:17;;;;;;;30.48;12.75;;;;;;;23.11;100.00;101551.03;5239489;28;20025;-72
2023/10/11 10:38:58;;;;;;;25.48;13.23;;;;;;;22.99;100.00;101558.34;5239656;28;20064;-72
2023/10/11 10:41:31;;;;;;;27.85;12.50;;;;;;;23.20;100.00;101557.00;5245833;28;20041;-72
2023/10/11 10:44:10;;;;;;;29.45;13.07;;;;;;;23.36;100.00;101555.50;5247690;28;20532;-72
2023/10/11 10:46:54;;;;;;;31.90;12.95;;;;;;;23.41;100.00;101553.72;5242797;28;20028;-72
2023/10/11 10:49:42;;;;;;;31.45;12.60;;;;;;;23.57;100.00;101565.91;5247664;28;20064;-72
2023/10/11 10:52:25;;;;;;;30.15;13.93;;;;;;;23.52;100.00;101552.09;5242113;28;20378;-71
2023/10/11 10:55:04;;;;;;;26.33;13.10;;;;;;;23.40;100.00;101560.28;5240293;28;20016;-72
2023/10/11 10:57:37;;;;;;;31.40;13.73;;;;;;;23.44;100.00;101550.50;5239693;28;20478;-72
2023/10/11 11:00:20;;;;;;;30.02;12.45;;;;;;;23.57;100.00;101548.66;5238753;28;20028;-72
2023/10/11 11:02:50;;;;;;;21.77;11.57;;;;;;;23.59;100.00;101525.41;5240780;28;20040;-72
2023/10/11 11:05:25;;;;;;;30.05;13.50;;;;;;;23.69;100.00;101516.66;5245365;28;20020;-72
2023/10/11 11:08:18;;;;;;;21.40;11.88;;;;;;;23.74;100.00;101530.47;5241533;28;20057;-71
2023/10/11 11:10:55;;;;;;;33.72;12.63;;;;;;;23.45;100.00;101524.81;5244906;28;20015;-72
2023/10/11 11:13:29;;;;;;;31.02;12.35;;;;;;;23.20;100.00;101521.44;5243438;28;20421;-73
2023/10/11 11:15:59;;;;;;;28.57;12.50;;;;;;;23.10;100.00;101515.69;5240442;28;20044;-72
2023/10/11 11:18:33;;;;;;;23.25;11.52;;;;;;;23.33;100.00;101523.94;5241218;28;20025;-72
2023/10/11 11:21:25;;;;;;;26.48;12.13;;;;;;;23.46;100.00;101512.78;5239073;28;20166;-72
2023/10/11 11:24:15;;;;;;;26.95;12.13;;;;;;;23.56;100.00;101500.44;5246170;28;20293;-72
2023/10/11 11:26:46;;;;;;;31.17;13.38;;;;;;;23.71;100.00;101501.66;5242198;28;20470;-72
2023/10/11 11:29:31;;;;;;;28.92;11.70;;;;;;;23.87;100.00;101496.53;5247534;28;20036;-72
2023/10/11 11:32:15;;;;;;;23.58;11.52;;;;;;;23.89;100.00;101492.47;5243156;28;20361;-72
2023/10/11 11:35:04;;;;;;;24.80;11.30;;;;;;;23.96;100.00;101484.97;5246879;28;20043;-73
2023/10/11 11:37:38;;;;;;;29.30;12.10;;;;;;;23.98;100.00;101476.50;5243540;28;20024;-72
2023/10/11 11:40:24;;;;;;;27.15;12.40;;;;;;;23.98;100.00;101476.50;5248065;28;20612;-72
2023/10/11 11:42:54;;;;;;;;;;;;;;;23.92;100.00;101467.34;5239786;28;20075;-72
2023/10/11 11:45:27;;;;;;;21.50;11.25;;;;;;;23.56;100.00;101462.91;5245558;28;19916;-72
2023/10/11 11:47:57;;;;;;;29.60;11.50;;;;;;;23.45;100.00;101452.78;5243907;28;20043;-72
2023/10/11 11:50:36;;;;;;;22.92;11.38;;;;;;;23.45;100.00;101442.69;5240792;28;20036;-72
2023/10/11 11:53:07;;;;;;;30.55;11.25;;;;;;;23.41;100.00;101430.53;5239920;28;20027;-72
2023/10/11 11:55:39;;;;;;;32.47;11.63;;;;;;;23.43;100.00;101439.31;5245501;28;20417;-72
2023/10/11 11:58:10;;;;;;;34.25;11.20;;;;;;;23.43;100.00;101431.09;5238710;28;20028;-71
2023/10/11 12:00:45;;;;;;;29.15;11.27;;;;;;;23.45;100.00;101428.16;5246600;28;20031;-72
2023/10/11 12:03:16;;;;;;;;;;;;;;;23.50;100.00;101425.53;5243582;28;20044;-73
2023/10/11 12:05:47;;;;;;;28.20;11.25;;;;;;;23.64;100.00;101429.72;5241978;28;20289;-72
2023/10/11 12:08:18;;;;;;;29.25;10.43;;;;;;;23.60;100.00;101425.78;5241164;28;20250;-72
2023/10/11 12:10:49;;;;;;;28.90;10.57;;;;;;;23.61;100.00;101437.56;5241635;28;20024;-72
2023/10/11 12:13:27;;;;;;;25.77;10.65;;;;;;;23.70;100.00;101436.16;5241164;28;20107;-71
2023/10/11 12:15:57;;;;;;;26.58;9.80;;;;;;;23.28;100.00;101444.44;5240993;28;20427;-72